createdAt,value
2019-02-26T00:13:01.605Z,1032.23
2019-02-26T00:18:01.541Z,1032.29
2019-02-26T00:28:01.577Z,1032.3
2019-02-26T00:33:05.211Z,1032.3
2019-02-26T00:38:01.604Z,1032.22
2019-02-26T00:48:01.515Z,1032.16
2019-02-26T01:04:01.562Z,1032.15
2019-02-26T01:09:05.966Z,1032.16
2019-02-26T01:14:01.474Z,1032.16
2019-02-26T01:19:01.475Z,1032.33
2019-02-26T01:24:04.589Z,1032.33
2019-02-26T01:29:01.458Z,1032.19
2019-02-26T01:39:01.607Z,1032.19
2019-02-26T01:49:04.297Z,1032.07
2019-02-26T02:04:01.613Z,1031.89
2019-02-26T02:09:01.445Z,1031.88
2019-02-26T02:24:01.604Z,1031.94
2019-02-26T02:29:01.465Z,1031.89
2019-02-26T02:39:01.510Z,1031.84
2019-02-26T02:44:01.515Z,1031.84
2019-02-26T02:49:04.563Z,1031.86
2019-02-26T02:59:06.613Z,1031.7
2019-02-26T03:04:01.630Z,1031.7
2019-02-26T03:09:01.484Z,1031.77
2019-02-26T03:19:01.604Z,1031.65
2019-02-26T03:29:01.612Z,1031.77
2019-02-26T03:39:03.031Z,1031.74
2019-02-26T03:44:06.241Z,1031.74
2019-02-26T03:54:01.594Z,1031.79
2019-02-26T04:04:05.330Z,1031.68
2019-02-26T04:19:01.660Z,1031.66
2019-02-26T04:34:07.944Z,1031.68
2019-02-26T04:49:01.557Z,1031.58
2019-02-26T04:59:06.926Z,1031.5
2019-02-26T05:09:05.527Z,1031.39
2019-02-26T05:24:03.278Z,1031.29
2019-02-26T05:34:01.642Z,1031.57
2019-02-26T05:39:02.715Z,1031.7
2019-02-26T05:44:10.849Z,1031.7
2019-02-26T05:49:14.021Z,1031.69
2019-02-26T05:54:12.127Z,1031.69
2019-02-26T05:59:10.188Z,1031.51
2019-02-26T06:04:09.520Z,1031.51
2019-02-26T06:09:07.930Z,1031.42
2019-02-26T06:19:01.642Z,1031.42
2019-02-26T06:29:01.636Z,1031.52
2019-02-26T06:44:01.675Z,1031.47
2019-02-26T06:49:01.664Z,1031.49
2019-02-26T06:54:01.745Z,1031.49
2019-02-26T06:59:09.637Z,1031.54
2019-02-26T07:04:01.711Z,1031.54
2019-02-26T07:09:01.715Z,1031.53
2019-02-26T07:14:07.584Z,1031.53
2019-02-26T07:19:08.689Z,1031.41
2019-02-26T07:24:04.029Z,1031.41
2019-02-26T07:29:07.990Z,1031.43
2019-02-26T07:34:03.608Z,1031.43
2019-02-26T07:39:01.974Z,1031.57
2019-02-26T07:44:01.680Z,1031.57
2019-02-26T07:49:07.620Z,1031.43
2019-02-26T07:54:01.677Z,1031.43
2019-02-26T07:59:09.889Z,1031.41
2019-02-26T08:09:13.489Z,1031.35
2019-02-26T08:15:08.741Z,1031.35
2019-02-26T08:20:09.986Z,1031.29
2019-02-26T08:25:01.636Z,1031.29
2019-02-26T08:30:01.800Z,1031.44
2019-02-26T08:35:01.747Z,1031.44
2019-02-26T08:40:01.486Z,1031.18
2019-02-26T08:45:01.786Z,1031.18
2019-02-26T08:50:07.192Z,1031.12
2019-02-26T08:55:01.641Z,1031.12
2019-02-26T09:00:01.879Z,1031.13
2019-02-26T09:05:06.818Z,1031.13
2019-02-26T09:10:01.716Z,1031.19
2019-02-26T09:15:01.791Z,1031.19
2019-02-26T09:20:12.094Z,1031.03
2019-02-26T09:25:02.801Z,1031.03
2019-02-26T09:30:08.440Z,1030.96
2019-02-26T09:35:04.974Z,1030.96
2019-02-26T09:40:04.913Z,1031.08
2019-02-26T09:45:01.873Z,1031.08
2019-02-26T09:50:01.574Z,1031.16
2019-02-26T09:55:01.638Z,1031.16
2019-02-26T10:00:03.818Z,1031.07
2019-02-26T10:05:01.603Z,1031.07
2019-02-26T10:10:06.531Z,1031.18
2019-02-26T10:15:05.583Z,1031.18
2019-02-26T10:20:05.039Z,1031.32
2019-02-26T10:25:01.619Z,1031.32
2019-02-26T10:30:10.508Z,1031.39
2019-02-26T10:35:01.626Z,1031.39
2019-02-26T10:40:01.582Z,1031.38
2019-02-26T10:45:01.947Z,1031.38
2019-02-26T10:51:07.247Z,1031.34
2019-02-26T10:56:01.768Z,1031.43
2019-02-26T11:01:05.497Z,1031.43
2019-02-26T11:06:01.600Z,1031.41
2019-02-26T11:11:01.560Z,1031.41
2019-02-26T11:16:03.235Z,1031.37
2019-02-26T11:21:01.493Z,1031.37
2019-02-26T11:31:01.374Z,1031.21
2019-02-26T11:36:05.418Z,1031.1
2019-02-26T11:46:04.382Z,1031.01
2019-02-26T11:51:01.739Z,1031.01
2019-02-26T11:56:02.343Z,1031.04
2019-02-26T12:01:01.512Z,1031.04
2019-02-26T12:06:02.554Z,1031.06
2019-02-26T12:35:08.573Z,1030.91
2019-02-26T12:45:09.885Z,1030.92
2019-02-26T13:00:01.398Z,1030.51
2019-02-26T13:10:05.066Z,1030.36
2019-02-26T13:15:19.501Z,1030.24
2019-02-26T13:35:08.298Z,1030.01
2019-02-26T13:45:06.040Z,1029.97
2019-02-26T14:00:01.005Z,1030.02
2019-02-26T14:15:00.938Z,1029.9
2019-02-26T14:30:01.513Z,1029.91
2019-02-26T14:35:00.928Z,1029.91
2019-02-26T14:40:00.765Z,1029.86
2019-02-26T14:45:01.027Z,1029.86
2019-02-26T14:50:02.536Z,1029.75
2019-02-26T14:55:00.885Z,1029.75
2019-02-26T15:00:01.507Z,1029.93
2019-02-26T15:05:00.981Z,1029.93
2019-02-26T15:10:00.912Z,1029.9
2019-02-26T15:15:01.145Z,1029.9
2019-02-26T15:20:00.988Z,1029.84
2019-02-26T15:30:00.940Z,1029.8
2019-02-26T15:35:01.003Z,1029.8
2019-02-26T15:40:02.628Z,1029.82
2019-02-26T15:45:01.268Z,1029.82
2019-02-26T15:50:00.914Z,1029.82
2019-02-26T15:55:00.906Z,1029.82
2019-02-26T16:00:01.354Z,1029.89
2019-02-26T16:05:01.720Z,1029.89
2019-02-26T16:10:00.933Z,1029.84
2019-02-26T16:15:00.926Z,1029.84
2019-02-26T16:20:00.929Z,1029.75
2019-02-26T16:25:00.924Z,1029.75
2019-02-26T16:30:00.967Z,1029.76
2019-02-26T16:35:00.919Z,1029.76
2019-02-26T16:40:00.959Z,1029.92
2019-02-26T16:45:01.936Z,1029.92
2019-02-26T16:50:13.511Z,1030.0
2019-02-26T16:55:00.992Z,1030.0
2019-02-26T17:00:01.072Z,1030.15
2019-02-26T17:05:00.976Z,1030.15
2019-02-26T17:10:01.331Z,1030.25
2019-02-26T17:15:00.959Z,1030.25
2019-02-26T17:20:01.023Z,1030.13
2019-02-26T17:25:01.004Z,1030.13
2019-02-26T17:30:01.385Z,1030.13
2019-02-26T17:35:00.985Z,1030.13
2019-02-26T17:40:04.169Z,1030.0
2019-02-26T17:45:01.461Z,1030.0
2019-02-26T17:50:01.368Z,1030.0
2019-02-26T18:00:06.027Z,1030.09
2019-02-26T18:05:01.991Z,1030.09
2019-02-26T18:10:00.899Z,1030.06
2019-02-26T18:15:01.012Z,1030.06
2019-02-26T18:20:05.876Z,1030.09
2019-02-26T18:25:02.179Z,1030.09
2019-02-26T18:30:00.826Z,1029.99
2019-02-26T18:35:00.953Z,1029.99
2019-02-26T18:40:00.828Z,1030.03
2019-02-26T18:45:01.012Z,1030.03
2019-02-26T18:50:05.903Z,1029.97
2019-02-26T18:55:00.902Z,1029.97
2019-02-26T19:00:00.961Z,1030.0
2019-02-26T19:05:00.981Z,1030.0
2019-02-26T19:15:06.014Z,1029.98
2019-02-26T19:20:00.872Z,1029.88
2019-02-26T19:30:05.196Z,1029.87
2019-02-26T19:35:02.022Z,1029.87
2019-02-26T19:40:00.937Z,1029.84
2019-02-26T19:45:01.006Z,1029.84
2019-02-26T20:00:01.311Z,1029.63
2019-02-26T20:05:01.006Z,1029.63
2019-02-26T20:15:01.039Z,1029.62
2019-02-26T20:20:05.693Z,1029.64
2019-02-26T20:25:00.917Z,1029.64
2019-02-26T20:30:00.860Z,1029.61
2019-02-26T20:35:00.986Z,1029.61
2019-02-26T20:40:00.869Z,1029.55
2019-02-26T20:45:00.986Z,1029.55
2019-02-26T21:00:00.901Z,1029.37
2019-02-26T21:15:01.024Z,1029.25
2019-02-26T21:25:00.940Z,1029.28
2019-02-26T21:30:00.945Z,1029.28
2019-02-26T21:35:01.010Z,1029.28
2019-02-26T21:40:00.916Z,1029.23
2019-02-26T21:45:01.016Z,1029.23
2019-02-26T21:50:00.883Z,1029.11
2019-02-26T21:55:01.974Z,1029.11
2019-02-26T22:00:06.040Z,1029.02
2019-02-26T22:10:00.986Z,1028.99
2019-02-26T22:15:01.096Z,1028.99
2019-02-26T22:20:00.959Z,1028.99
2019-02-26T22:25:11.232Z,1028.99
2019-02-26T22:30:00.906Z,1028.81
2019-02-26T22:40:01.024Z,1028.84
2019-02-26T22:45:01.046Z,1028.84
2019-02-26T22:50:00.964Z,1028.69
2019-02-26T23:00:01.083Z,1028.64
2019-02-26T23:05:01.085Z,1028.64
2019-02-26T23:15:01.148Z,1028.6
2019-02-26T23:25:01.867Z,1028.55
2019-02-26T23:30:01.023Z,1028.48
2019-02-26T23:45:01.122Z,1028.46
